METAR Data
IDs: Format: Raw Decoded Include TAF

Data at: 1347 UTC 12 Dec 2018

PANV 121341Z AUTO 06006KT 1 1/4SM -SN BR OVC013 M13/M15 A2905 RMK AO2 P0000 FZRANO
PANV 120854Z AUTO 03008KT 1 1/2SM -SN BR BKN015 OVC024 M12/M13 A2900 RMK AO2 P0000 411061128 FZRANO
PANV 120624Z AUTO 06006KT 2SM -SN BR BKN017 OVC023 M12/M13 A2896 RMK AO2 P0000 FZRANO
PANV 120338Z AUTO 05005KT 2 1/2SM -SN BR OVC028 M13/M14 A2894 RMK AO2 VIS 2 1/2V3 P0000 FZRANO
PANV 120331Z AUTO 05004KT 2SM -SN BR FEW013 SCT025 OVC031 M13/M14 A2895 RMK AO2 P0000 FZRANO
PANV 120245Z AUTO 07006KT 6SM -SN BR BKN007 OVC011 M13/M14 A2895 RMK AO2 CIG 007V010 P0000 FZRANO
PANV 120156Z AUTO 07004KT 9SM -SN BKN017 OVC065 M13/M14 A2894 RMK AO2 SLP823 P0000 T11281139 FZRANO
PANV 120022Z AUTO 00000KT 5SM -SN BR BKN023 BKN032 OVC060 M12/M14 A2894 RMK AO2 P0000 FZRANO
PANV 112256Z AUTO 02003KT 9SM -SN OVC013 M13/M14 A2893 RMK AO2 SLP819 P0000 T11281144 FZRANO
PANV 112156Z AUTO 00000KT 9SM -SN OVC085 M12/M14 A2893 RMK AO2 SLP817 P0000 T11221139 FZRANO
PANV 112113Z AUTO 00000KT 3SM -SN BR OVC095 M12/M14 A2892 RMK AO2 P0000 FZRANO
PANV 112056Z AUTO 12003KT 2 1/2SM -SN BR OVC100 M13/M14 A2892 RMK AO2 SLP815 P0000 60000 T11281144 51015 FZRANO
PANV 112010Z AUTO 11003KT 4SM -SN BR SCT020 BKN080 OVC095 M13/M14 A2891 RMK AO2 P0000 FZRANO
PANV 111919Z AUTO 10005KT 9SM -SN OVC030 M12/M14 A2890 RMK AO2 SNB11 P0000 FZRANO
PANV 111856Z AUTO 12005KT 10SM OVC028 M12/M14 A2890 RMK AO2 SLP806 T11221144 FZRANO
PANV 111756Z AUTO 10003KT 10SM OVC024 M12/M14 A2887 RMK AO2 SLP799 T11221139 11111 21122 51019 FZRANO
PANV 111708Z AUTO 05004KT 10SM BKN026 OVC085 M12/M14 A2885 RMK AO2 FZRANO
PANV 111456Z AUTO 05005KT 10SM BKN070 BKN110 M12/M14 A2882 RMK AO2 SLP779 T11221139 51013 FZRANO
PANV 110956Z AUTO 02008KT 10SM FEW075 OVC100 M11/M13 A2875 RMK AO2 SLP756 T11111128 FZRANO
PANV 110556Z AUTO 04012KT 10SM OVC060 M10/M12 A2872 RMK AO2 SNE05 SLP748 P0000 60000 T11001117 11094 21100 53003 FZRANO